Time;durP1;ratioP1;P1;durP2;ratioP2;P2;SDS_P1;SDS_P2;PMS_P1;PMS_P2;Temp;Humidity;BMP_temperature;BMP_pressure;BME280_temperature;BME280_humidity;BME280_pressure;Samples;Min_cycle;Max_cycle;Signal;HPM_P1;HPM_P2
2023/05/29 00:01:52;;;;;;;;;;;19.90;45.80;;;;;;5094788;28;19908;-71
2023/05/29 00:04:18;;;;;;;;;;;19.90;45.40;;;;;;5076899;28;19908;-71
2023/05/29 00:06:43;;;;;;;;;;;19.90;45.50;;;;;;5095094;28;19929;-71
2023/05/29 00:09:09;;;;;;;;;;;19.80;45.40;;;;;;5095056;28;19908;-71
2023/05/29 00:11:34;;;;;;;;;;;19.80;45.50;;;;;;5094924;28;19912;-71
2023/05/29 00:14:00;;;;;;;;;;;19.80;45.50;;;;;;5094938;28;19904;-71
2023/05/29 00:16:26;;;;;;;;;;;19.80;45.60;;;;;;5076594;28;20395;-71
2023/05/29 00:18:51;;;;;;;;;;;19.70;45.50;;;;;;5095466;28;19916;-71
2023/05/29 00:21:17;;;;;;;;;;;19.70;45.40;;;;;;5094594;28;19908;-71
2023/05/29 00:23:43;;;;;;;;;;;19.70;45.50;;;;;;5094671;28;19927;-71
2023/05/29 00:26:08;;;;;;;;;;;19.70;45.60;;;;;;5076310;28;20010;-70
2023/05/29 00:28:36;;;;;;;;;;;19.70;45.70;;;;;;5077014;28;19908;-71
2023/05/29 00:31:02;;;;;;;;;;;19.60;45.80;;;;;;5075978;28;19908;-71
2023/05/29 00:33:27;;;;;;;;;;;19.60;45.80;;;;;;5094526;28;19958;-71
2023/05/29 00:35:53;;;;;;;;;;;19.60;45.80;;;;;;5094439;28;19904;-71
2023/05/29 00:38:18;;;;;;;;;;;19.60;45.80;;;;;;5076430;28;19904;-71
2023/05/29 00:40:44;;;;;;;;;;;19.60;45.80;;;;;;5094850;28;19911;-71
2023/05/29 00:43:09;;;;;;;;;;;19.60;46.50;;;;;;5094425;28;19904;-71
2023/05/29 00:45:36;;;;;;;;;;;19.60;45.80;;;;;;5094130;28;19904;-71
2023/05/29 00:48:02;;;;;;;;;;;19.60;45.80;;;;;;5094311;28;19904;-71
2023/05/29 00:50:28;;;;;;;;;;;19.60;45.90;;;;;;5094302;28;19910;-71
2023/05/29 00:52:54;;;;;;;;;;;19.50;46.00;;;;;;5094193;28;20002;-71
2023/05/29 00:55:19;;;;;;;;;;;19.50;45.80;;;;;;5093826;28;20321;-71
2023/05/29 00:57:46;;;;;;;;;;;19.50;46.00;;;;;;5094124;28;20349;-70
2023/05/29 01:00:13;;;;;;;;;;;19.50;46.00;;;;;;5076232;28;19954;-71
2023/05/29 01:02:44;;;;;;;;;;;19.40;46.00;;;;;;5094190;28;19904;-71
2023/05/29 01:05:11;;;;;;;;;;;19.50;46.10;;;;;;5094172;28;19911;-71
2023/05/29 01:07:37;;;;;;;;;;;19.40;46.00;;;;;;5076246;28;19956;-71
2023/05/29 01:10:03;;;;;;;;;;;19.40;46.00;;;;;;5079555;28;19904;-71
2023/05/29 01:12:38;;;;;;;;;;;19.40;46.10;;;;;;5073451;28;19924;-72
2023/05/29 01:15:15;;;;;;;;;;;19.40;46.10;;;;;;5073909;28;19995;-71
2023/05/29 01:18:01;;;;;;;;;;;19.40;46.10;;;;;;5064432;28;19916;-71
2023/05/29 01:20:35;;;;;;;;;;;19.40;46.20;;;;;;5093887;28;19904;-71
2023/05/29 01:23:20;;;;;;;;;;;19.40;46.20;;;;;;5075654;28;19904;-71
2023/05/29 01:25:49;;;;;;;;;;;19.40;46.20;;;;;;5094108;28;19950;-71
2023/05/29 01:28:15;;;;;;;;;;;19.40;46.20;;;;;;5093853;28;20243;-70
2023/05/29 01:30:41;;;;;;;;;;;19.40;46.10;;;;;;5075586;28;19915;-71
2023/05/29 01:33:07;;;;;;;;;;;19.30;46.00;;;;;;5093894;28;19916;-71
2023/05/29 01:35:32;;;;;;;;;;;19.30;46.20;;;;;;5093682;28;19904;-71
2023/05/29 01:37:58;;;;;;;;;;;19.30;46.10;;;;;;5075766;28;19912;-71
2023/05/29 01:40:23;;;;;;;;;;;19.20;46.30;;;;;;5094065;28;19911;-70
2023/05/29 01:42:49;;;;;;;;;;;19.20;46.20;;;;;;5075863;28;19904;-71
2023/05/29 01:45:16;;;;;;;;;;;19.20;46.30;;;;;;5093683;28;20041;-71
2023/05/29 01:47:42;;;;;;;;;;;19.20;46.50;;;;;;5075633;28;19911;-70
2023/05/29 01:50:08;;;;;;;;;;;19.20;46.50;;;;;;5075318;28;19908;-71
2023/05/29 01:52:35;;;;;;;;;;;19.10;46.50;;;;;;5094045;28;20361;-71
2023/05/29 01:55:00;;;;;;;;;;;19.20;46.60;;;;;;5093849;28;19904;-70
2023/05/29 01:57:26;;;;;;;;;;;19.20;46.60;;;;;;5093943;28;20346;-71
2023/05/29 01:59:52;;;;;;;;;;;19.10;46.60;;;;;;5075655;28;19910;-72
2023/05/29 02:02:17;;;;;;;;;;;19.20;46.80;;;;;;5075307;28;19908;-70
2023/05/29 02:04:43;;;;;;;;;;;19.20;46.70;;;;;;5093619;28;19995;-70
2023/05/29 02:07:08;;;;;;;;;;;19.10;46.80;;;;;;5077348;28;19904;-71
2023/05/29 02:09:35;;;;;;;;;;;19.10;46.80;;;;;;5097501;28;19904;-70
2023/05/29 02:12:01;;;;;;;;;;;19.20;46.80;;;;;;5097152;28;19973;-71
2023/05/29 02:14:27;;;;;;;;;;;19.20;47.00;;;;;;5078666;28;19908;-70
2023/05/29 02:16:52;;;;;;;;;;;19.20;46.90;;;;;;5078627;28;19904;-71
2023/05/29 02:19:18;;;;;;;;;;;19.10;46.90;;;;;;5097070;28;20041;-71
2023/05/29 02:21:44;;;;;;;;;;;19.20;46.90;;;;;;5097083;28;20381;-71
2023/05/29 02:24:09;;;;;;;;;;;19.20;46.90;;;;;;5096878;28;19998;-70
2023/05/29 02:26:36;;;;;;;;;;;19.20;47.00;;;;;;5096830;28;20406;-71
2023/05/29 02:29:02;;;;;;;;;;;19.10;46.90;;;;;;5096764;28;19919;-71
2023/05/29 02:31:28;;;;;;;;;;;19.10;47.00;;;;;;5078497;28;19927;-70
2023/05/29 02:33:53;;;;;;;;;;;19.20;47.00;;;;;;5078849;28;19911;-70
2023/05/29 02:36:19;;;;;;;;;;;19.20;47.00;;;;;;5097032;28;19904;-70
2023/05/29 02:38:44;;;;;;;;;;;19.20;47.10;;;;;;5096728;28;19904;-70
2023/05/29 02:41:10;;;;;;;;;;;19.20;47.00;;;;;;5078357;28;19904;-70
2023/05/29 02:43:35;;;;;;;;;;;19.20;47.00;;;;;;5078643;28;19911;-70
2023/05/29 02:46:01;;;;;;;;;;;19.20;47.10;;;;;;5096719;28;20247;-70
2023/05/29 02:48:26;;;;;;;;;;;19.20;47.10;;;;;;5078215;28;19911;-70
2023/05/29 02:50:52;;;;;;;;;;;19.20;47.00;;;;;;5078314;28;19955;-70
2023/05/29 02:53:17;;;;;;;;;;;19.30;46.90;;;;;;5078359;28;19963;-70
2023/05/29 02:55:43;;;;;;;;;;;19.30;47.10;;;;;;5078139;28;19904;-70
2023/05/29 02:58:08;;;;;;;;;;;19.30;46.90;;;;;;5096411;28;19904;-70
2023/05/29 03:00:34;;;;;;;;;;;19.30;46.90;;;;;;5096677;28;19904;-70
2023/05/29 03:03:00;;;;;;;;;;;19.40;47.00;;;;;;5096049;28;20362;-71
2023/05/29 03:05:25;;;;;;;;;;;19.40;47.60;;;;;;5096215;28;20360;-72
2023/05/29 03:07:51;;;;;;;;;;;19.50;46.80;;;;;;5095979;28;20428;-71
2023/05/29 03:10:17;;;;;;;;;;;19.50;46.80;;;;;;5096060;28;20006;-71
2023/05/29 03:12:43;;;;;;;;;;;19.50;46.80;;;;;;5077884;28;19966;-71
2023/05/29 03:15:09;;;;;;;;;;;19.50;46.80;;;;;;5096089;28;19904;-71
2023/05/29 03:17:37;;;;;;;;;;;19.60;46.80;;;;;;5095202;28;19915;-71
2023/05/29 03:20:05;;;;;;;;;;;19.70;46.90;;;;;;5095488;28;19991;-71
2023/05/29 03:22:31;;;;;;;;;;;19.70;46.90;;;;;;5095792;28;19904;-72
2023/05/29 03:24:57;;;;;;;;;;;19.70;46.70;;;;;;5095741;28;19968;-71
2023/05/29 03:27:23;;;;;;;;;;;19.80;46.70;;;;;;5096023;28;19904;-71
2023/05/29 03:29:48;;;;;;;;;;;19.80;46.70;;;;;;5095613;28;19915;-71
2023/05/29 03:32:14;;;;;;;;;;;19.90;46.60;;;;;;5095074;28;20247;-71
2023/05/29 03:34:39;;;;;;;;;;;19.90;46.60;;;;;;5095704;28;20417;-71
2023/05/29 03:37:05;;;;;;;;;;;20.00;46.50;;;;;;5095425;28;19927;-71
2023/05/29 03:39:31;;;;;;;;;;;20.00;46.40;;;;;;5095647;28;19927;-71
2023/05/29 03:41:56;;;;;;;;;;;20.10;46.40;;;;;;5095336;28;19904;-71
2023/05/29 03:44:22;;;;;;;;;;;20.10;46.20;;;;;;5095282;28;20354;-71
2023/05/29 03:46:47;;;;;;;;;;;20.20;46.20;;;;;;5095461;28;19908;-72
2023/05/29 03:49:13;;;;;;;;;;;20.20;46.10;;;;;;5095177;28;19926;-71
2023/05/29 03:51:38;;;;;;;;;;;20.20;46.10;;;;;;5095287;28;19919;-71
2023/05/29 03:54:04;;;;;;;;;;;20.20;46.00;;;;;;5095220;28;19947;-71
2023/05/29 03:56:30;;;;;;;;;;;20.30;46.00;;;;;;5095072;28;19904;-71
2023/05/29 03:58:55;;;;;;;;;;;20.30;45.90;;;;;;5094561;28;19908;-72
2023/05/29 04:01:21;;;;;;;;;;;20.40;45.90;;;;;;5094680;28;19908;-71
2023/05/29 04:03:46;;;;;;;;;;;20.40;45.90;;;;;;5076281;28;19995;-72
2023/05/29 04:06:12;;;;;;;;;;;20.40;45.90;;;;;;5094275;28;19904;-71
2023/05/29 04:08:38;;;;;;;;;;;20.40;45.80;;;;;;5094634;28;19939;-71
2023/05/29 04:11:04;;;;;;;;;;;20.40;45.70;;;;;;5094169;28;20381;-71
2023/05/29 04:13:30;;;;;;;;;;;20.50;45.70;;;;;;5074086;28;19908;-71
2023/05/29 04:15:55;;;;;;;;;;;20.50;45.60;;;;;;5093812;28;19911;-73
2023/05/29 04:18:21;;;;;;;;;;;20.50;45.80;;;;;;5075507;28;19916;-72
2023/05/29 04:20:47;;;;;;;;;;;20.60;45.80;;;;;;5093439;28;19919;-72
2023/05/29 04:23:13;;;;;;;;;;;20.60;45.70;;;;;;5093274;28;20358;-71
2023/05/29 04:25:38;;;;;;;;;;;20.70;45.60;;;;;;5092403;28;19961;-71
2023/05/29 04:28:04;;;;;;;;;;;20.70;45.40;;;;;;5093447;28;19978;-72
2023/05/29 04:30:30;;;;;;;;;;;20.70;45.40;;;;;;5093183;28;19908;-72
2023/05/29 04:32:55;;;;;;;;;;;20.70;45.40;;;;;;5093617;28;19912;-71
2023/05/29 04:35:21;;;;;;;;;;;20.70;45.40;;;;;;5093177;28;20358;-72
2023/05/29 04:37:47;;;;;;;;;;;20.80;45.30;;;;;;5093137;28;19912;-71
2023/05/29 04:40:17;;;;;;;;;;;20.80;45.20;;;;;;5075287;28;19911;-73
2023/05/29 04:42:44;;;;;;;;;;;20.80;45.30;;;;;;5075298;28;19904;-70
2023/05/29 04:45:13;;;;;;;;;;;20.80;45.20;;;;;;5074824;28;20281;-71
2023/05/29 04:47:43;;;;;;;;;;;20.80;45.20;;;;;;5074465;28;19912;-72
2023/05/29 04:50:12;;;;;;;;;;;20.80;45.20;;;;;;5072052;28;20288;-73
2023/05/29 04:52:38;;;;;;;;;;;20.90;45.40;;;;;;5093291;28;20361;-72
2023/05/29 04:55:04;;;;;;;;;;;20.90;45.30;;;;;;5093037;28;19998;-72
2023/05/29 04:57:29;;;;;;;;;;;20.90;45.20;;;;;;5093038;28;19908;-72
2023/05/29 04:59:55;;;;;;;;;;;20.90;45.30;;;;;;5075215;28;20007;-70
2023/05/29 05:02:20;;;;;;;;;;;20.80;45.20;;;;;;5093121;28;20004;-71
2023/05/29 05:04:46;;;;;;;;;;;20.90;45.10;;;;;;5093377;28;19919;-72
2023/05/29 05:07:12;;;;;;;;;;;20.90;45.20;;;;;;5092864;28;20413;-71
2023/05/29 05:09:37;;;;;;;;;;;20.90;45.20;;;;;;5092868;28;19919;-71
2023/05/29 05:12:03;;;;;;;;;;;20.90;45.30;;;;;;5074637;28;20293;-72
2023/05/29 05:14:28;;;;;;;;;;;20.90;45.30;;;;;;5092122;28;20713;-72
2023/05/29 05:16:54;;;;;;;;;;;20.90;45.40;;;;;;5092234;28;19919;-74
2023/05/29 05:19:20;;;;;;;;;;;21.00;45.40;;;;;;5074412;28;19916;-72
2023/05/29 05:21:46;;;;;;;;;;;21.00;45.20;;;;;;5092402;28;19911;-72
2023/05/29 05:24:12;;;;;;;;;;;21.00;45.20;;;;;;5093151;28;20306;-70
2023/05/29 05:26:38;;;;;;;;;;;20.90;45.20;;;;;;5073228;28;19911;-73
2023/05/29 05:29:04;;;;;;;;;;;21.00;45.20;;;;;;5092688;28;19916;-71
2023/05/29 05:31:29;;;;;;;;;;;21.00;45.20;;;;;;5074410;28;19920;-70
2023/05/29 05:33:55;;;;;;;;;;;21.00;45.20;;;;;;5074777;28;20319;-72
2023/05/29 05:36:21;;;;;;;;;;;21.00;45.30;;;;;;5074668;28;19911;-71
2023/05/29 05:38:46;;;;;;;;;;;21.00;45.20;;;;;;5092619;28;19908;-70
2023/05/29 05:41:12;;;;;;;;;;;21.10;45.20;;;;;;5074846;28;19908;-72
2023/05/29 05:43:37;;;;;;;;;;;21.10;45.00;;;;;;5096549;28;19908;-70
2023/05/29 05:46:03;;;;;;;;;;;21.10;44.90;;;;;;5096835;28;20440;-72
2023/05/29 05:48:28;;;;;;;;;;;21.10;44.80;;;;;;5096708;28;19904;-71
2023/05/29 05:50:53;;;;;;;;;;;21.10;44.90;;;;;;5096414;28;19911;-71
2023/05/29 05:53:20;;;;;;;;;;;21.20;44.90;;;;;;5078437;28;19908;-71
2023/05/29 05:55:46;;;;;;;;;;;21.20;44.90;;;;;;5096501;28;19908;-71
2023/05/29 05:58:11;;;;;;;;;;;21.20;44.90;;;;;;5096431;28;19934;-71
2023/05/29 06:00:37;;;;;;;;;;;21.20;45.00;;;;;;5095787;28;19973;-71
2023/05/29 06:03:03;;;;;;;;;;;21.20;44.90;;;;;;5095671;28;19916;-71
2023/05/29 06:05:29;;;;;;;;;;;21.30;45.00;;;;;;5096176;28;19908;-71
2023/05/29 06:07:54;;;;;;;;;;;21.30;45.00;;;;;;5078004;28;20391;-77
2023/05/29 06:10:20;;;;;;;;;;;21.30;45.20;;;;;;5096386;28;19939;-76
2023/05/29 06:12:45;;;;;;;;;;;21.30;45.40;;;;;;5095216;28;20437;-73
2023/05/29 06:15:11;;;;;;;;;;;21.40;45.80;;;;;;5095451;28;19991;-74
2023/05/29 06:17:36;;;;;;;;;;;21.40;45.60;;;;;;5095417;28;19916;-73
2023/05/29 06:20:05;;;;;;;;;;;21.40;45.60;;;;;;5078143;28;20281;-71
2023/05/29 06:22:30;;;;;;;;;;;21.40;46.00;;;;;;5096266;28;20392;-76
2023/05/29 06:24:56;;;;;;;;;;;21.50;46.20;;;;;;5096333;28;19951;-73
2023/05/29 06:27:25;;;;;;;;;;;21.50;46.10;;;;;;5095787;28;19919;-72
2023/05/29 06:29:51;;;;;;;;;;;21.60;46.10;;;;;;5095850;28;19916;-72
2023/05/29 06:32:16;;;;;;;;;;;21.70;45.90;;;;;;5095785;28;19908;-73
2023/05/29 06:34:42;;;;;;;;;;;21.70;45.60;;;;;;5077716;28;19912;-73
2023/05/29 06:37:08;;;;;;;;;;;21.70;45.60;;;;;;5095377;28;19908;-70
2023/05/29 06:39:34;;;;;;;;;;;21.80;45.70;;;;;;5076121;28;19915;-73
2023/05/29 06:42:01;;;;;;;;;;;21.80;45.40;;;;;;5077539;28;19904;-72
2023/05/29 06:44:26;;;;;;;;;;;21.90;45.50;;;;;;5094580;28;20273;-72
2023/05/29 06:46:52;;;;;;;;;;;21.90;45.00;;;;;;5095927;28;19904;-72
2023/05/29 06:49:18;;;;;;;;;;;21.80;44.90;;;;;;5095413;28;19916;-72
2023/05/29 06:51:44;;;;;;;;;;;21.80;45.20;;;;;;5095011;28;20377;-71
2023/05/29 06:54:10;;;;;;;;;;;21.90;45.10;;;;;;5076276;28;19908;-74
2023/05/29 06:56:35;;;;;;;;;;;21.90;45.40;;;;;;5077447;28;19904;-72
2023/05/29 06:59:00;;;;;;;;;;;21.90;45.40;;;;;;5077181;28;20369;-72
2023/05/29 07:01:26;;;;;;;;;;;21.90;45.50;;;;;;5095498;28;20001;-72
2023/05/29 07:03:52;;;;;;;;;;;21.90;45.20;;;;;;5094967;28;20277;-72
2023/05/29 07:06:18;;;;;;;;;;;21.90;45.00;;;;;;5077453;28;19915;-75
2023/05/29 07:08:43;;;;;;;;;;;21.90;45.30;;;;;;5076976;28;19904;-71
2023/05/29 07:11:09;;;;;;;;;;;21.90;45.00;;;;;;5094896;28;20317;-72
2023/05/29 07:13:35;;;;;;;;;;;21.90;45.10;;;;;;5076717;28;19908;-73
2023/05/29 07:16:01;;;;;;;;;;;21.90;45.40;;;;;;5094858;28;20599;-73
2023/05/29 07:18:26;;;;;;;;;;;21.90;45.40;;;;;;5094827;28;19916;-73
2023/05/29 07:20:52;;;;;;;;;;;21.90;45.40;;;;;;5094568;28;19911;-73
2023/05/29 07:23:17;;;;;;;;;;;22.00;45.60;;;;;;5094394;28;19922;-72
2023/05/29 07:25:43;;;;;;;;;;;22.00;45.70;;;;;;5094729;28;19955;-71
2023/05/29 07:28:08;;;;;;;;;;;22.00;46.10;;;;;;5076594;28;20366;-72
2023/05/29 07:30:33;;;;;;;;;;;22.10;45.30;;;;;;5094129;28;19916;-72
2023/05/29 07:32:59;;;;;;;;;;;22.10;45.20;;;;;;5094732;28;19908;-72
2023/05/29 07:35:25;;;;;;;;;;;22.10;45.40;;;;;;5094807;28;19908;-73
2023/05/29 07:37:52;;;;;;;;;;;22.20;45.50;;;;;;5094324;28;19911;-76
2023/05/29 07:40:17;;;;;;;;;;;22.20;45.30;;;;;;5094283;28;20014;-73
2023/05/29 07:42:43;;;;;;;;;;;22.30;44.70;;;;;;5094759;28;20342;-72
2023/05/29 07:45:08;;;;;;;;;;;22.30;45.00;;;;;;5094772;28;20310;-72
2023/05/29 07:47:34;;;;;;;;;;;22.30;45.00;;;;;;5094332;28;19965;-74
2023/05/29 07:49:59;;;;;;;;;;;22.30;45.00;;;;;;5093969;28;19994;-75
2023/05/29 07:52:25;;;;;;;;;;;22.30;45.00;;;;;;5093302;28;19912;-73
2023/05/29 07:54:50;;;;;;;;;;;22.40;45.00;;;;;;5093818;28;20281;-76
2023/05/29 07:57:16;;;;;;;;;;;22.40;45.00;;;;;;5094043;28;19904;-72
2023/05/29 07:59:41;;;;;;;;;;;22.40;44.90;;;;;;5075414;28;19911;-72
2023/05/29 08:02:07;;;;;;;;;;;22.40;44.80;;;;;;5093863;28;19904;-73
2023/05/29 08:04:33;;;;;;;;;;;22.40;44.90;;;;;;5074951;28;19941;-72
2023/05/29 08:07:03;;;;;;;;;;;22.50;45.00;;;;;;5093947;28;19930;-72
2023/05/29 08:09:29;;;;;;;;;;;22.60;45.00;;;;;;5075286;28;19915;-73
2023/05/29 08:11:54;;;;;;;;;;;22.60;45.00;;;;;;5070166;28;20274;-74
2023/05/29 08:14:20;;;;;;;;;;;22.60;44.90;;;;;;5091487;28;19908;-73
2023/05/29 08:16:45;;;;;;;;;;;22.60;45.00;;;;;;5092929;28;19908;-74
2023/05/29 08:19:11;;;;;;;;;;;22.70;44.70;;;;;;5075822;28;19916;-73
2023/05/29 08:21:37;;;;;;;;;;;22.70;44.80;;;;;;5092791;28;19961;-74
2023/05/29 08:24:05;;;;;;;;;;;22.70;44.80;;;;;;5093154;28;19958;-72
2023/05/29 08:26:30;;;;;;;;;;;22.80;44.80;;;;;;5093307;28;19915;-71
2023/05/29 08:28:56;;;;;;;;;;;22.80;44.90;;;;;;5093126;28;19908;-74
2023/05/29 08:31:23;;;;;;;;;;;22.90;44.90;;;;;;5093010;28;20002;-71
2023/05/29 08:33:49;;;;;;;;;;;22.90;45.10;;;;;;5074350;28;19969;-73
2023/05/29 08:36:14;;;;;;;;;;;22.90;45.10;;;;;;5074679;28;20300;-73
2023/05/29 08:38:40;;;;;;;;;;;23.00;44.90;;;;;;5093104;28;19908;-74
2023/05/29 08:41:07;;;;;;;;;;;23.10;45.00;;;;;;5074567;28;19935;-73
2023/05/29 08:43:32;;;;;;;;;;;23.10;45.00;;;;;;5073668;28;19908;-70
2023/05/29 08:45:59;;;;;;;;;;;23.10;45.10;;;;;;5093140;28;19912;-70
2023/05/29 08:48:26;;;;;;;;;;;23.10;44.90;;;;;;5093329;28;19904;-73
2023/05/29 08:50:52;;;;;;;;;;;23.20;44.90;;;;;;5075034;28;19904;-73
2023/05/29 08:53:19;;;;;;;;;;;23.20;45.00;;;;;;5092559;28;20306;-74
2023/05/29 08:55:46;;;;;;;;;;;23.30;44.90;;;;;;5092822;28;19919;-75
2023/05/29 08:58:13;;;;;;;;;;;23.30;44.80;;;;;;5093350;28;20273;-71
2023/05/29 09:00:40;;;;;;;;;;;23.30;44.90;;;;;;5074981;28;20002;-73
2023/05/29 09:03:06;;;;;;;;;;;23.40;44.90;;;;;;5074984;28;19903;-74
2023/05/29 09:05:32;;;;;;;;;;;23.40;44.90;;;;;;5092637;28;20423;-75
2023/05/29 09:07:58;;;;;;;;;;;23.50;45.10;;;;;;5093644;28;19904;-73
2023/05/29 09:10:26;;;;;;;;;;;23.50;45.00;;;;;;5093275;28;19996;-74
2023/05/29 09:12:51;;;;;;;;;;;23.60;44.90;;;;;;5092585;28;20024;-73
2023/05/29 09:15:18;;;;;;;;;;;23.60;44.70;;;;;;5075208;28;19959;-73
2023/05/29 09:17:44;;;;;;;;;;;23.60;44.90;;;;;;5095888;28;19959;-73
2023/05/29 09:20:19;;;;;;;;;;;23.70;45.00;;;;;;5097445;28;19908;-75
2023/05/29 09:22:57;;;;;;;;;;;23.80;45.00;;;;;;5079555;28;20003;-76
2023/05/29 09:25:23;;;;;;;;;;;23.80;45.10;;;;;;5078583;28;20243;-76
2023/05/29 09:27:56;;;;;;;;;;;23.90;45.10;;;;;;5097160;28;19912;-75
2023/05/29 09:30:36;;;;;;;;;;;24.00;45.10;;;;;;5096196;28;20105;-74
2023/05/29 09:33:02;;;;;;;;;;;24.10;44.90;;;;;;5084628;28;19914;-75
2023/05/29 09:35:35;;;;;;;;;;;24.30;44.80;;;;;;5077477;28;20002;-75
2023/05/29 09:38:01;;;;;;;;;;;24.40;44.80;;;;;;5077529;28;19904;-75
2023/05/29 09:40:29;;;;;;;;;;;24.60;44.50;;;;;;5077482;28;19904;-75
2023/05/29 09:42:54;;;;;;;;;;;24.70;44.30;;;;;;5059445;28;20324;-75
2023/05/29 09:45:20;;;;;;;;;;;24.90;44.10;;;;;;5077412;28;19912;-75
2023/05/29 09:47:45;;;;;;;;;;;24.90;43.80;;;;;;5077501;28;19954;-76
2023/05/29 09:50:22;;;;;;;;;;;25.00;43.50;;;;;;5077248;28;19950;-75
2023/05/29 09:52:52;;;;;;;;;;;25.10;43.60;;;;;;5077306;28;19912;-75
2023/05/29 09:55:19;;;;;;;;;;;25.20;43.50;;;;;;5077068;28;20290;-76
2023/05/29 09:57:46;;;;;;;;;;;25.20;43.50;;;;;;5077456;28;20330;-75
2023/05/29 10:00:13;;;;;;;;;;;25.30;42.80;;;;;;5077425;28;19950;-75
2023/05/29 10:02:39;;;;;;;;;;;25.20;43.00;;;;;;5077094;28;19913;-75
2023/05/29 10:05:07;;;;;;;;;;;25.20;43.50;;;;;;5077028;28;19950;-75
2023/05/29 10:07:35;;;;;;;;;;;25.10;43.00;;;;;;5076776;28;19957;-76
2023/05/29 10:10:02;;;;;;;;;;;25.00;43.50;;;;;;5077088;28;20370;-75
2023/05/29 10:12:28;;;;;;;;;;;25.00;43.10;;;;;;5076918;28;19908;-75
2023/05/29 10:14:57;;;;;;;;;;;24.90;43.30;;;;;;5077220;28;19909;-77
2023/05/29 10:17:25;;;;;;;;;;;24.90;43.30;;;;;;5076896;28;20358;-75
2023/05/29 10:19:51;;;;;;;;;;;24.90;43.40;;;;;;5076562;28;20332;-75
2023/05/29 10:22:19;;;;;;;;;;;24.90;43.50;;;;;;5076289;28;19935;-75
2023/05/29 10:24:45;;;;;;;;;;;24.90;43.60;;;;;;5076520;28;19904;-75
2023/05/29 10:27:11;;;;;;;;;;;24.90;43.40;;;;;;5076095;28;19904;-74
2023/05/29 10:29:43;;;;;;;;;;;24.90;43.40;;;;;;5076654;28;20010;-74
2023/05/29 10:32:29;;;;;;;;;;;24.90;43.60;;;;;;5076350;28;19912;-75
2023/05/29 10:35:13;;;;;;;;;;;24.90;43.60;;;;;;5058830;28;19944;-75
2023/05/29 10:37:41;;;;;;;;;;;24.90;43.60;;;;;;5076402;28;20380;-76
2023/05/29 10:40:17;;;;;;;;;;;25.00;43.50;;;;;;5076433;28;19995;-75
2023/05/29 10:42:46;;;;;;;;;;;25.10;43.50;;;;;;5076582;28;20277;-75
2023/05/29 10:45:31;;;;;;;;;;;25.20;43.50;;;;;;5076123;28;19911;-74
2023/05/29 10:48:11;;;;;;;;;;;25.30;43.50;;;;;;5076095;28;19905;-75
2023/05/29 10:50:38;;;;;;;;;;;25.40;43.20;;;;;;5076275;28;19904;-75
2023/05/29 10:53:06;;;;;;;;;;;25.50;43.10;;;;;;5075909;28;19912;-75
2023/05/29 10:55:36;;;;;;;;;;;25.60;43.20;;;;;;5058037;28;20274;-75
2023/05/29 10:58:04;;;;;;;;;;;25.70;43.30;;;;;;5075748;28;19905;-75
2023/05/29 11:00:30;;;;;;;;;;;25.80;43.10;;;;;;5058046;28;19911;-75
2023/05/29 11:02:56;;;;;;;;;;;25.80;42.90;;;;;;5076026;28;19904;-74
2023/05/29 11:05:23;;;;;;;;;;;25.90;42.80;;;;;;5075939;28;19904;-74
2023/05/29 11:07:56;;;;;;;;;;;26.00;42.70;;;;;;5058057;28;20419;-76
2023/05/29 11:10:40;;;;;;;;;;;26.00;42.30;;;;;;5075757;28;20420;-75
2023/05/29 11:13:07;;;;;;;;;;;26.10;42.80;;;;;;5075792;28;20014;-75
2023/05/29 11:15:33;;;;;;;;;;;26.00;42.60;;;;;;5075834;28;19909;-74
2023/05/29 11:18:05;;;;;;;;;;;26.00;42.70;;;;;;5075714;28;19923;-75
2023/05/29 11:20:43;;;;;;;;;;;26.00;42.70;;;;;;5075792;28;19983;-75
2023/05/29 11:23:16;;;;;;;;;;;26.10;42.70;;;;;;5075847;28;20312;-76
2023/05/29 11:25:43;;;;;;;;;;;26.10;42.70;;;;;;5075784;28;19973;-74
2023/05/29 11:28:10;;;;;;;;;;;26.10;42.50;;;;;;5075331;28;19912;-75
2023/05/29 11:30:46;;;;;;;;;;;26.10;42.60;;;;;;5057438;28;19917;-74
2023/05/29 11:33:32;;;;;;;;;;;26.10;42.50;;;;;;5075175;28;19908;-75
2023/05/29 11:35:58;;;;;;;;;;;26.10;42.20;;;;;;5074654;28;19908;-74
2023/05/29 11:38:25;;;;;;;;;;;26.10;42.60;;;;;;5075136;28;19911;-75
2023/05/29 11:40:50;;;;;;;;;;;26.00;42.40;;;;;;5056536;28;19912;-75
2023/05/29 11:43:16;;;;;;;;;;;26.10;42.00;;;;;;5075002;28;19905;-75
2023/05/29 11:45:41;;;;;;;;;;;26.10;42.40;;;;;;5075351;28;20502;-75
2023/05/29 11:48:07;;;;;;;;;;;26.10;42.50;;;;;;5075061;28;19912;-75
2023/05/29 11:50:33;;;;;;;;;;;26.20;42.50;;;;;;5075444;28;19959;-75
2023/05/29 11:52:59;;;;;;;;;;;26.20;42.40;;;;;;5074892;28;20011;-75
2023/05/29 11:55:25;;;;;;;;;;;26.30;42.60;;;;;;5075100;28;20341;-75
2023/05/29 11:57:56;;;;;;;;;;;26.30;42.30;;;;;;5074737;28;20343;-75
2023/05/29 12:00:21;;;;;;;;;;;26.40;42.30;;;;;;5056717;28;19926;-75
2023/05/29 12:02:47;;;;;;;;;;;26.50;42.30;;;;;;5074438;28;20363;-75
2023/05/29 12:05:14;;;;;;;;;;;26.50;41.50;;;;;;5056876;28;19904;-75
2023/05/29 12:07:46;;;;;;;;;;;26.60;41.70;;;;;;5056771;28;19912;-76
2023/05/29 12:10:14;;;;;;;;;;;26.70;41.70;;;;;;5057368;28;20405;-76
2023/05/29 12:12:40;;;;;;;;;;;26.80;42.20;;;;;;5074695;28;19908;-75
2023/05/29 12:15:06;;;;;;;;;;;26.90;41.90;;;;;;5074573;28;19909;-75
2023/05/29 12:17:32;;;;;;;;;;;26.90;42.10;;;;;;5073984;28;19923;-75
2023/05/29 12:19:58;;;;;;;;;;;27.10;41.30;;;;;;5074398;28;19915;-74
2023/05/29 12:22:32;;;;;;;;;;;27.20;41.80;;;;;;5056620;28;19904;-75
2023/05/29 12:25:03;;;;;;;;;;;27.30;41.40;;;;;;5074285;28;19916;-75
2023/05/29 12:27:29;;;;;;;;;;;27.30;40.80;;;;;;5074398;28;19912;-75
2023/05/29 12:30:01;;;;;;;;;;;27.40;41.00;;;;;;5074491;28;20362;-75
2023/05/29 12:32:37;;;;;;;;;;;27.40;41.40;;;;;;5074153;28;19953;-74
2023/05/29 12:35:18;;;;;;;;;;;27.50;41.20;;;;;;5074156;28;19908;-74
2023/05/29 12:37:44;;;;;;;;;;;27.50;40.80;;;;;;5074110;28;19904;-74
2023/05/29 12:40:19;;;;;;;;;;;27.50;41.30;;;;;;5074280;28;19987;-74
2023/05/29 12:42:46;;;;;;;;;;;27.50;40.80;;;;;;5074071;28;19904;-75
2023/05/29 12:45:11;;;;;;;;;;;27.50;41.10;;;;;;5073819;28;19909;-75
2023/05/29 12:47:37;;;;;;;;;;;27.50;40.80;;;;;;5074133;28;19908;-74
2023/05/29 12:50:37;;;;;;;;;;;27.60;41.20;;;;;;5073884;28;19905;-75
2023/05/29 12:53:06;;;;;;;;;;;27.70;41.30;;;;;;5040601;28;19913;-75
2023/05/29 12:55:39;;;;;;;;;;;27.80;41.30;;;;;;5074003;28;19905;-74
2023/05/29 12:58:08;;;;;;;;;;;27.90;40.90;;;;;;5056307;28;19912;-74
2023/05/29 13:00:35;;;;;;;;;;;28.00;40.80;;;;;;5073847;28;19904;-74
2023/05/29 13:03:01;;;;;;;;;;;28.10;40.80;;;;;;5073898;28;19904;-75
2023/05/29 13:05:26;;;;;;;;;;;28.20;40.70;;;;;;5074319;28;19904;-75
2023/05/29 13:07:52;;;;;;;;;;;28.30;40.60;;;;;;5073998;28;20369;-75
2023/05/29 13:10:18;;;;;;;;;;;28.30;40.60;;;;;;5073821;28;20003;-74
2023/05/29 13:12:44;;;;;;;;;;;28.30;40.60;;;;;;5073955;28;19914;-75
2023/05/29 13:15:11;;;;;;;;;;;28.30;40.40;;;;;;5073611;28;19913;-75
2023/05/29 13:17:37;;;;;;;;;;;28.30;40.40;;;;;;5073452;28;19916;-75
2023/05/29 13:20:06;;;;;;;;;;;28.20;40.40;;;;;;5073832;28;19995;-75
2023/05/29 13:22:32;;;;;;;;;;;28.30;39.90;;;;;;5073640;28;19943;-74
2023/05/29 13:24:59;;;;;;;;;;;28.20;39.80;;;;;;5073734;28;20022;-75
2023/05/29 13:27:25;;;;;;;;;;;28.20;39.70;;;;;;5055478;28;19908;-74
2023/05/29 13:29:51;;;;;;;;;;;28.20;40.30;;;;;;5055532;28;20408;-75
2023/05/29 13:32:16;;;;;;;;;;;28.20;40.60;;;;;;5073264;28;19912;-74
2023/05/29 13:34:42;;;;;;;;;;;28.20;40.40;;;;;;5073596;28;19931;-75
2023/05/29 13:37:07;;;;;;;;;;;28.40;40.20;;;;;;5073563;28;20007;-75
2023/05/29 13:39:33;;;;;;;;;;;28.40;40.30;;;;;;5073531;28;20261;-75
2023/05/29 13:41:58;;;;;;;;;;;28.60;40.50;;;;;;5055616;28;19904;-75
2023/05/29 13:44:24;;;;;;;;;;;28.90;41.10;;;;;;5073777;28;19911;-75
2023/05/29 13:46:50;;;;;;;;;;;29.30;40.90;;;;;;5073187;28;19905;-75
2023/05/29 13:49:16;;;;;;;;;;;29.80;40.40;;;;;;5073413;28;19905;-75
2023/05/29 13:51:41;;;;;;;;;;;30.40;40.50;;;;;;5073341;28;19958;-75
2023/05/29 13:54:07;;;;;;;;;;;30.80;40.70;;;;;;5073619;28;20263;-75
2023/05/29 13:56:32;;;;;;;;;;;31.30;39.90;;;;;;5073381;28;20366;-75
2023/05/29 13:59:04;;;;;;;;;;;31.70;40.80;;;;;;5073313;28;19999;-75
2023/05/29 14:01:30;;;;;;;;;;;32.30;39.60;;;;;;5073136;28;19909;-76
2023/05/29 14:03:56;;;;;;;;;;;32.90;39.20;;;;;;5076297;28;20369;-75
2023/05/29 14:06:21;;;;;;;;;;;33.40;38.90;;;;;;5077046;28;20235;-76
2023/05/29 14:08:46;;;;;;;;;;;33.80;38.40;;;;;;5077090;28;20421;-74
2023/05/29 14:11:12;;;;;;;;;;;34.10;37.40;;;;;;5076849;28;19904;-75
2023/05/29 14:13:37;;;;;;;;;;;34.30;38.30;;;;;;5076833;28;19916;-76
2023/05/29 14:16:03;;;;;;;;;;;34.40;38.30;;;;;;5076904;28;19908;-75